Laurel Springs, North Carolina
Current Conditions -  °F | °C
As of 4:35 AM on Sunday 26 Oct 2014 (Local Time) from KGEV Reporting Station
Clear Clear  
Wind Chill: 57°   Ceiling: Unl
Heat Index: 57°   Visibility: 10mi
Dew Point: 46°   Wind: 18mph
Humidity: 65%   Direction: 300°WNW
Pressure: 29.91"   Gusts: 31mph
Location:  36.42°N, 81.26°W
Report Text: KGEV 260835Z AUTO 30016G27KT 10SM CLR 14/08 A2991 RMK AO2 T01410075
Loading
Personal Weather Stations






























Interactive Weather Map
Tropical Storm Tracking
New forecast layout! Learn more

10-Day Weather Forecast

Advertisements
Track Severe Weather on mobile